createdAt,value
2019-01-30T00:01:31.433Z,1.71
2019-01-30T00:04:01.093Z,1.72
2019-01-30T00:06:30.754Z,1.69
2019-01-30T00:09:00.496Z,1.72
2019-01-30T00:11:31.846Z,1.72
2019-01-30T00:14:01.573Z,1.72
2019-01-30T00:16:31.298Z,1.74
2019-01-30T00:19:00.944Z,1.72
2019-01-30T00:21:30.683Z,1.68
2019-01-30T00:24:00.341Z,1.72
2019-01-30T00:26:30.070Z,1.70
2019-01-30T00:28:59.721Z,1.69
2019-01-30T00:31:29.632Z,1.71
2019-01-30T00:33:59.364Z,1.70
2019-01-30T00:36:29.107Z,1.71
2019-01-30T00:38:58.772Z,1.71
2019-01-30T00:41:29.400Z,1.72
2019-01-30T00:43:59.062Z,1.74
2019-01-30T00:46:28.781Z,1.74
2019-01-30T00:48:59.139Z,1.74
2019-01-30T00:51:28.782Z,1.77
2019-01-30T00:53:58.442Z,1.80
2019-01-30T00:56:28.181Z,1.78
2019-01-30T00:58:57.917Z,1.81
2019-01-30T01:01:27.580Z,1.79
2019-01-30T01:03:57.316Z,1.79
2019-01-30T01:06:27.038Z,1.83
2019-01-30T01:08:56.702Z,1.83
2019-01-30T01:11:26.545Z,1.85
2019-01-30T01:13:56.202Z,1.85
2019-01-30T01:16:25.853Z,1.89
2019-01-30T01:18:55.494Z,1.89
2019-01-30T01:21:25.151Z,1.88
2019-01-30T01:23:54.797Z,1.84
2019-01-30T01:26:24.461Z,1.84
2019-01-30T01:28:54.122Z,1.83
2019-01-30T01:31:23.781Z,1.83
2019-01-30T01:33:53.521Z,1.82
2019-01-30T01:36:23.174Z,1.76
2019-01-30T01:38:53.058Z,1.79
2019-01-30T01:41:22.721Z,1.83
2019-01-30T01:43:52.372Z,1.85
2019-01-30T01:46:22.030Z,1.88
2019-01-30T01:48:51.694Z,1.89
2019-01-30T01:51:21.344Z,1.92
2019-01-30T01:53:51.073Z,1.93
2019-01-30T01:56:20.731Z,1.84
2019-01-30T01:58:50.396Z,1.79
2019-01-30T02:01:20.071Z,1.74
2019-01-30T02:03:49.727Z,1.70
2019-01-30T02:06:19.391Z,1.66
2019-01-30T02:08:49.137Z,1.67
2019-01-30T02:11:18.794Z,1.66
2019-01-30T02:13:48.528Z,1.65
2019-01-30T02:16:18.277Z,1.60
2019-01-30T02:18:47.934Z,1.60
2019-01-30T02:21:17.738Z,1.59
2019-01-30T02:23:47.392Z,1.56
2019-01-30T02:26:17.296Z,1.54
2019-01-30T02:28:46.976Z,1.53
2019-01-30T02:31:16.823Z,1.52
2019-01-30T02:33:46.500Z,1.51
2019-01-30T02:36:16.159Z,1.52
2019-01-30T02:38:45.847Z,1.48
2019-01-30T02:41:15.487Z,1.50
2019-01-30T02:43:45.413Z,1.48
2019-01-30T02:46:15.088Z,1.49
2019-01-30T02:48:44.751Z,1.51
2019-01-30T02:51:14.407Z,1.45
2019-01-30T02:53:44.319Z,1.47
2019-01-30T02:56:14.001Z,1.46
2019-01-30T02:58:43.702Z,1.47
2019-01-30T03:01:13.355Z,1.46
2019-01-30T03:03:43.031Z,1.47
2019-01-30T03:06:12.685Z,1.43
2019-01-30T03:08:42.421Z,1.39
2019-01-30T03:11:12.100Z,1.36
2019-01-30T03:13:41.776Z,1.33
2019-01-30T03:16:11.451Z,1.31
2019-01-30T03:18:41.111Z,1.31
2019-01-30T03:21:10.784Z,1.33
2019-01-30T03:23:40.440Z,1.30
2019-01-30T03:26:10.362Z,1.24
2019-01-30T03:28:40.023Z,1.22
2019-01-30T03:31:17.906Z,1.26
2019-01-30T03:33:41.064Z,1.25
2019-01-30T03:36:10.719Z,1.21
2019-01-30T03:38:40.385Z,1.23
2019-01-30T03:41:10.068Z,1.23
2019-01-30T03:43:39.715Z,1.19
2019-01-30T03:46:09.380Z,1.15
2019-01-30T03:48:39.111Z,1.17
2019-01-30T03:51:08.772Z,1.18
2019-01-30T03:53:38.507Z,1.20
2019-01-30T03:56:08.243Z,1.23
2019-01-30T03:58:37.932Z,1.23
2019-01-30T04:01:07.818Z,1.28
2019-01-30T04:03:37.562Z,1.22
2019-01-30T04:06:07.299Z,1.21
2019-01-30T04:08:36.991Z,1.24
2019-01-30T04:11:06.716Z,1.23
2019-01-30T04:13:36.452Z,1.23
2019-01-30T04:16:06.122Z,1.24
2019-01-30T04:18:35.793Z,1.24
2019-01-30T04:21:05.607Z,1.25
2019-01-30T04:23:35.350Z,1.28
2019-01-30T04:26:05.280Z,1.29
2019-01-30T04:28:34.941Z,1.30
2019-01-30T04:31:05.505Z,1.29
2019-01-30T04:33:35.179Z,1.24
2019-01-30T04:36:05.341Z,1.25
2019-01-30T04:38:35.013Z,1.21
2019-01-30T04:41:05.628Z,1.21
2019-01-30T04:43:35.301Z,1.19
2019-01-30T04:46:05.226Z,1.15
2019-01-30T04:48:34.882Z,1.13
2019-01-30T04:51:05.460Z,1.09
2019-01-30T04:53:35.147Z,1.10
2019-01-30T04:56:05.651Z,1.08
2019-01-30T04:58:35.329Z,1.10
2019-01-30T05:01:05.673Z,1.13
2019-01-30T05:03:35.319Z,1.13
2019-01-30T05:06:05.423Z,1.12
2019-01-30T05:08:35.171Z,1.10
2019-01-30T05:11:05.428Z,1.10
2019-01-30T05:13:35.097Z,1.13
2019-01-30T05:16:05.483Z,1.13
2019-01-30T05:18:35.152Z,1.17
2019-01-30T05:21:05.718Z,1.19
2019-01-30T05:23:35.387Z,1.20
2019-01-30T05:26:05.035Z,1.22
2019-01-30T05:28:34.695Z,1.23
2019-01-30T05:31:05.322Z,1.23
2019-01-30T05:33:34.971Z,1.23
2019-01-30T05:36:05.133Z,1.26
2019-01-30T05:38:34.790Z,1.26
2019-01-30T05:41:05.080Z,1.24
2019-01-30T05:43:34.735Z,1.26
2019-01-30T05:46:05.410Z,1.27
2019-01-30T05:48:35.064Z,1.30
2019-01-30T05:51:05.657Z,1.28
2019-01-30T05:53:35.547Z,1.30
2019-01-30T05:56:05.299Z,1.34
2019-01-30T05:58:34.959Z,1.34
2019-01-30T06:01:05.440Z,1.35
2019-01-30T06:03:35.092Z,1.36
2019-01-30T06:06:05.439Z,1.37
2019-01-30T06:08:35.114Z,1.39
2019-01-30T06:11:05.385Z,1.43
2019-01-30T06:13:35.047Z,1.45
2019-01-30T06:16:05.367Z,1.47
2019-01-30T06:18:35.063Z,1.49
2019-01-30T06:21:05.611Z,1.46
2019-01-30T06:23:35.281Z,1.45
2019-01-30T06:26:05.452Z,1.42
2019-01-30T06:28:35.214Z,1.42
2019-01-30T06:31:05.522Z,1.44
2019-01-30T06:33:35.317Z,1.45
2019-01-30T06:36:05.160Z,1.45
2019-01-30T06:38:34.830Z,1.47
2019-01-30T06:41:05.088Z,1.48
2019-01-30T06:43:34.736Z,1.48
2019-01-30T06:46:05.297Z,1.50
2019-01-30T06:48:34.949Z,1.52
2019-01-30T06:51:04.998Z,1.53
2019-01-30T06:53:34.675Z,1.51
2019-01-30T06:56:05.247Z,1.49
2019-01-30T06:58:34.903Z,1.49
2019-01-30T07:01:04.720Z,1.53
2019-01-30T07:03:34.372Z,1.53
2019-01-30T07:06:04.207Z,1.54
2019-01-30T07:08:34.120Z,1.53
2019-01-30T07:11:10.380Z,1.52
2019-01-30T07:13:35.231Z,1.53
2019-01-30T07:16:05.372Z,1.55
2019-01-30T07:18:35.055Z,1.55
2019-01-30T07:21:05.142Z,1.56
2019-01-30T07:26:16.243Z,1.62
2019-01-30T07:28:45.973Z,1.60
2019-01-30T07:31:15.623Z,1.60
2019-01-30T07:33:45.372Z,1.59
2019-01-30T07:36:15.031Z,1.53
2019-01-30T07:38:44.693Z,1.48
2019-01-30T07:41:14.433Z,1.48
2019-01-30T07:43:44.326Z,1.50
2019-01-30T07:46:13.987Z,1.48
2019-01-30T07:48:43.656Z,1.43
2019-01-30T07:51:15.785Z,1.43
2019-01-30T07:53:45.044Z,1.46
2019-01-30T07:56:14.715Z,1.49
2019-01-30T07:58:44.377Z,1.50
2019-01-30T08:01:14.024Z,1.48
2019-01-30T08:03:43.700Z,1.49
2019-01-30T08:06:13.444Z,1.51
2019-01-30T08:08:43.099Z,1.57
2019-01-30T08:11:12.762Z,1.60
2019-01-30T08:13:42.428Z,1.61
2019-01-30T08:16:12.174Z,1.64
2019-01-30T08:18:41.919Z,1.61
2019-01-30T08:21:11.915Z,1.61
2019-01-30T08:23:41.587Z,1.60
2019-01-30T08:26:11.701Z,1.61
2019-01-30T08:28:41.531Z,1.64
2019-01-30T08:31:11.244Z,1.68
2019-01-30T08:33:40.903Z,1.68
2019-01-30T08:36:10.632Z,1.65
2019-01-30T08:38:40.412Z,1.68
2019-01-30T08:41:10.031Z,1.68
2019-01-30T08:43:39.698Z,1.68
2019-01-30T08:46:09.429Z,1.66
2019-01-30T08:48:39.105Z,1.70
2019-01-30T08:51:08.848Z,1.68
2019-01-30T08:53:40.421Z,1.72
2019-01-30T08:56:09.542Z,1.74
2019-01-30T08:58:39.712Z,1.79
2019-01-30T09:01:09.521Z,1.78
2019-01-30T09:03:39.198Z,1.82
2019-01-30T09:06:08.863Z,1.87
2019-01-30T09:08:38.544Z,1.88
2019-01-30T09:11:08.272Z,1.90
2019-01-30T09:13:38.187Z,1.93
2019-01-30T09:16:08.066Z,1.91
2019-01-30T09:18:37.667Z,1.92
2019-01-30T09:21:07.399Z,1.91
2019-01-30T09:23:37.079Z,1.93
2019-01-30T09:26:06.744Z,2.00
2019-01-30T09:28:36.413Z,2.00
2019-01-30T09:31:06.147Z,2.06
2019-01-30T09:33:35.804Z,2.07
2019-01-30T09:36:05.955Z,2.07
2019-01-30T09:38:35.721Z,2.05
2019-01-30T09:41:05.539Z,2.06
2019-01-30T09:43:35.211Z,2.05
2019-01-30T09:46:05.439Z,2.03
2019-01-30T09:48:36.984Z,2.08
2019-01-30T09:51:06.554Z,2.13
2019-01-30T09:53:36.294Z,2.16
2019-01-30T09:56:05.956Z,2.18
2019-01-30T09:58:35.615Z,2.15
2019-01-30T10:01:05.568Z,2.14
2019-01-30T10:03:36.534Z,2.25
2019-01-30T10:06:06.523Z,2.29
2019-01-30T10:08:36.199Z,2.35
2019-01-30T10:11:05.904Z,2.38
2019-01-30T10:13:37.360Z,2.42
2019-01-30T10:16:07.015Z,2.42
2019-01-30T10:18:36.679Z,2.41
2019-01-30T10:21:06.458Z,2.41
2019-01-30T10:23:36.203Z,2.44
2019-01-30T10:26:05.936Z,2.47
2019-01-30T10:28:35.599Z,2.51
2019-01-30T10:31:05.343Z,2.58
2019-01-30T10:33:35.014Z,2.59
2019-01-30T10:36:05.569Z,2.61
2019-01-30T10:38:35.486Z,2.63
2019-01-30T10:41:05.342Z,2.65
2019-01-30T10:43:35.011Z,2.69
2019-01-30T10:46:05.485Z,2.71
2019-01-30T10:48:36.574Z,2.81
2019-01-30T10:51:07.375Z,2.85
2019-01-30T10:53:37.162Z,2.87
2019-01-30T10:56:06.964Z,2.92
2019-01-30T10:58:36.628Z,2.97
2019-01-30T11:01:06.486Z,3.04
2019-01-30T11:03:36.228Z,3.06
2019-01-30T11:06:06.347Z,3.06
2019-01-30T11:08:36.088Z,3.06
2019-01-30T11:11:08.090Z,2.99
2019-01-30T11:13:37.337Z,3.00
2019-01-30T11:16:07.153Z,3.04
2019-01-30T11:18:36.891Z,3.09
2019-01-30T11:21:06.632Z,3.13
2019-01-30T11:23:36.287Z,3.16
2019-01-30T11:26:06.100Z,3.16
2019-01-30T11:28:35.767Z,3.13
2019-01-30T11:31:05.502Z,3.07
2019-01-30T11:33:35.168Z,3.09
2019-01-30T11:36:05.423Z,3.06
2019-01-30T11:38:35.275Z,3.10
2019-01-30T11:41:05.925Z,3.17
2019-01-30T11:43:35.554Z,3.25
2019-01-30T11:46:06.313Z,3.31
2019-01-30T11:48:35.987Z,3.35
2019-01-30T11:51:05.849Z,3.37
2019-01-30T11:53:35.517Z,3.36
2019-01-30T11:56:06.128Z,3.42
2019-01-30T11:58:35.796Z,3.45
2019-01-30T12:01:05.598Z,3.48
2019-01-30T12:03:35.262Z,3.53
2019-01-30T12:06:05.776Z,3.59
2019-01-30T12:08:36.426Z,3.64
2019-01-30T12:11:06.155Z,3.66
2019-01-30T12:13:35.814Z,3.68
2019-01-30T12:16:05.567Z,3.63
2019-01-30T12:18:35.243Z,3.61
2019-01-30T12:21:05.060Z,3.66
2019-01-30T12:23:34.714Z,3.68
2019-01-30T12:26:05.417Z,3.72
2019-01-30T12:28:35.157Z,3.75
2019-01-30T12:31:05.803Z,3.70
2019-01-30T12:33:35.713Z,3.70
2019-01-30T12:36:05.768Z,3.59
2019-01-30T12:38:35.455Z,3.52
2019-01-30T12:41:05.628Z,3.48
2019-01-30T12:43:35.457Z,3.44
2019-01-30T12:46:05.335Z,3.40
2019-01-30T12:48:35.008Z,3.42
2019-01-30T12:51:05.788Z,3.42
2019-01-30T12:53:35.461Z,3.36
2019-01-30T12:56:05.488Z,3.33
2019-01-30T12:58:35.152Z,3.33
2019-01-30T13:01:05.695Z,3.36
2019-01-30T13:03:35.336Z,3.36
2019-01-30T13:06:05.491Z,3.39
2019-01-30T13:08:35.163Z,3.40
2019-01-30T13:11:05.517Z,3.38
2019-01-30T13:13:35.200Z,3.36
2019-01-30T13:16:05.768Z,3.34
2019-01-30T13:18:35.439Z,3.36
2019-01-30T13:21:05.552Z,3.33
2019-01-30T13:23:35.227Z,3.32
2019-01-30T13:26:06.103Z,3.27
2019-01-30T13:28:35.765Z,3.28
2019-01-30T13:31:05.580Z,3.32
2019-01-30T13:33:35.249Z,3.35
2019-01-30T13:36:05.798Z,3.31
2019-01-30T13:38:35.444Z,3.19
2019-01-30T13:41:05.477Z,3.20
2019-01-30T13:43:35.141Z,3.11
2019-01-30T13:46:05.822Z,2.97
2019-01-30T13:48:35.576Z,2.94
2019-01-30T13:51:05.844Z,2.89
2019-01-30T13:53:37.204Z,2.93
2019-01-30T13:56:07.113Z,2.95
2019-01-30T13:58:36.787Z,3.01
2019-01-30T14:01:17.023Z,3.03
2019-01-30T14:03:37.959Z,3.06
2019-01-30T14:06:07.704Z,3.06
2019-01-30T14:08:37.550Z,3.06
2019-01-30T14:11:07.332Z,3.10
2019-01-30T14:13:37.028Z,3.09
2019-01-30T14:16:06.954Z,3.12
2019-01-30T14:18:36.566Z,3.14
2019-01-30T14:21:06.304Z,3.14
2019-01-30T14:23:35.964Z,3.16
2019-01-30T14:26:05.717Z,3.11
2019-01-30T14:28:35.384Z,3.11
2019-01-30T14:31:06.767Z,3.11
2019-01-30T14:33:36.490Z,3.12
2019-01-30T14:36:06.318Z,3.14
2019-01-30T14:38:36.049Z,3.11
2019-01-30T14:41:05.870Z,3.06
2019-01-30T14:43:35.539Z,3.01
2019-01-30T14:46:05.905Z,2.95
2019-01-30T14:48:35.716Z,2.90
2019-01-30T14:51:05.405Z,2.91
2019-01-30T14:53:35.068Z,2.86
2019-01-30T14:56:05.632Z,2.85
2019-01-30T14:58:35.327Z,2.87
2019-01-30T15:01:05.971Z,2.90
2019-01-30T15:03:35.629Z,2.90
2019-01-30T15:06:05.567Z,2.91
2019-01-30T15:08:35.263Z,2.93
2019-01-30T15:11:05.386Z,2.90
2019-01-30T15:13:35.080Z,2.89
2019-01-30T15:16:05.590Z,2.86
2019-01-30T15:18:35.301Z,2.86
2019-01-30T15:21:05.572Z,2.92
2019-01-30T15:23:35.183Z,2.91
2019-01-30T15:26:05.472Z,2.88
2019-01-30T15:28:35.131Z,2.90
2019-01-30T15:33:59.448Z,2.94
2019-01-30T15:36:29.134Z,2.98
2019-01-30T15:38:58.815Z,3.01
2019-01-30T15:41:28.578Z,3.04
2019-01-30T15:43:58.245Z,3.06
2019-01-30T15:46:28.162Z,3.08
2019-01-30T15:48:57.835Z,3.08
2019-01-30T15:51:27.503Z,3.09
2019-01-30T15:53:57.243Z,3.08
2019-01-30T15:56:26.899Z,3.08
2019-01-30T15:58:56.583Z,3.10
2019-01-30T16:01:41.577Z,3.11
2019-01-30T16:04:11.231Z,3.09
2019-01-30T16:06:40.896Z,3.10
2019-01-30T16:09:10.747Z,3.05
2019-01-30T16:11:40.399Z,2.99
2019-01-30T16:14:11.291Z,2.94
2019-01-30T16:19:23.611Z,2.88
2019-01-30T16:21:53.359Z,2.83
2019-01-30T16:24:23.037Z,2.80
2019-01-30T16:26:52.789Z,2.84
2019-01-30T16:29:22.599Z,2.84
2019-01-30T16:31:52.259Z,2.84
2019-01-30T16:34:21.951Z,2.82
2019-01-30T16:36:51.628Z,2.79
2019-01-30T16:39:21.293Z,2.79
2019-01-30T16:41:50.956Z,2.76
2019-01-30T16:44:21.040Z,2.77
2019-01-30T16:46:50.707Z,2.75
2019-01-30T16:49:20.675Z,2.75
2019-01-30T16:51:50.603Z,2.75
2019-01-30T16:54:20.279Z,2.73
2019-01-30T16:56:59.346Z,2.74
2019-01-30T16:59:29.983Z,2.74
2019-01-30T17:02:00.023Z,2.74
2019-01-30T17:04:29.693Z,2.74
2019-01-30T17:06:59.349Z,2.72
2019-01-30T17:09:29.011Z,2.70
2019-01-30T17:11:58.689Z,2.66
2019-01-30T17:14:28.347Z,2.65
2019-01-30T17:16:58.013Z,2.66
2019-01-30T17:19:27.750Z,2.65
2019-01-30T17:21:57.515Z,2.62
2019-01-30T17:24:27.156Z,2.61
2019-01-30T17:26:56.836Z,2.58
2019-01-30T17:29:26.577Z,2.57
2019-01-30T17:31:56.320Z,2.52
2019-01-30T17:37:09.571Z,2.46
2019-01-30T17:39:39.154Z,2.38
2019-01-30T17:42:08.835Z,2.40
2019-01-30T17:44:38.588Z,2.42
2019-01-30T17:47:08.260Z,2.44
2019-01-30T17:49:37.940Z,2.43
2019-01-30T17:52:07.743Z,2.48
2019-01-30T17:54:37.435Z,2.51
2019-01-30T17:57:07.144Z,2.55
2019-01-30T17:59:36.876Z,2.55
2019-01-30T18:02:08.410Z,2.57
2019-01-30T18:04:38.157Z,2.54
2019-01-30T18:07:07.900Z,2.45
2019-01-30T18:09:37.565Z,2.47
2019-01-30T18:12:07.535Z,2.48
2019-01-30T18:17:12.367Z,2.44
2019-01-30T18:19:42.281Z,2.39
2019-01-30T18:22:11.963Z,2.34
2019-01-30T18:24:41.616Z,2.27
2019-01-30T18:27:11.283Z,2.26
2019-01-30T18:29:40.948Z,2.24
2019-01-30T18:32:10.707Z,2.26
2019-01-30T18:34:40.382Z,2.24
2019-01-30T18:37:10.047Z,2.26
2019-01-30T18:39:39.712Z,2.25
2019-01-30T18:42:09.456Z,2.22
2019-01-30T18:44:39.122Z,2.16
2019-01-30T18:47:08.799Z,2.14
2019-01-30T18:49:38.716Z,2.14
2019-01-30T18:52:08.524Z,2.15
2019-01-30T18:54:38.197Z,2.13
2019-01-30T18:57:07.939Z,2.10
2019-01-30T18:59:40.016Z,2.09
2019-01-30T19:02:09.688Z,2.09
2019-01-30T19:04:39.350Z,2.09
2019-01-30T19:07:09.019Z,2.07
2019-01-30T19:09:38.802Z,2.05
2019-01-30T19:12:09.968Z,2.01
2019-01-30T19:14:40.586Z,1.99
2019-01-30T19:17:10.334Z,2.01
2019-01-30T19:19:40.025Z,2.03
2019-01-30T19:22:10.428Z,2.03
2019-01-30T19:24:40.055Z,2.04
2019-01-30T19:27:09.735Z,2.03
2019-01-30T19:29:39.403Z,2.01
2019-01-30T19:32:09.077Z,2.04
2019-01-30T19:34:38.744Z,2.06
2019-01-30T19:37:08.416Z,2.05
2019-01-30T19:39:38.085Z,2.01
2019-01-30T19:42:07.821Z,2.02
2019-01-30T19:44:37.484Z,2.02
2019-01-30T19:47:07.232Z,1.97
2019-01-30T19:49:36.975Z,2.02
2019-01-30T19:52:06.796Z,2.11
2019-01-30T19:54:36.778Z,2.16
2019-01-30T19:57:06.460Z,2.11
2019-01-30T19:59:36.125Z,2.03
2019-01-30T20:02:06.499Z,1.96
2019-01-30T20:04:36.180Z,1.96
2019-01-30T20:07:14.415Z,1.98
2019-01-30T20:09:37.485Z,2.00
2019-01-30T20:12:07.149Z,2.04
2019-01-30T20:14:37.135Z,2.11
2019-01-30T20:17:06.877Z,2.09
2019-01-30T20:19:36.615Z,2.07
2019-01-30T20:22:06.436Z,2.03
2019-01-30T20:24:36.201Z,1.97
2019-01-30T20:27:06.015Z,1.93
2019-01-30T20:29:35.689Z,1.92
2019-01-30T20:32:06.454Z,1.87
2019-01-30T20:34:36.130Z,1.87
2019-01-30T20:39:59.469Z,1.78
2019-01-30T20:42:29.131Z,1.72
2019-01-30T20:44:58.832Z,1.68
2019-01-30T20:47:28.510Z,1.67
2019-01-30T20:49:58.186Z,1.66
2019-01-30T20:52:28.083Z,1.65
2019-01-30T20:54:59.749Z,1.65
2019-01-30T20:57:29.101Z,1.65
2019-01-30T20:59:58.770Z,1.63
2019-01-30T21:02:28.447Z,1.65
2019-01-30T21:04:58.126Z,1.68
2019-01-30T21:07:37.165Z,1.67
2019-01-30T21:09:59.169Z,1.67
2019-01-30T21:12:28.837Z,1.69
2019-01-30T21:14:58.500Z,1.77
2019-01-30T21:17:28.173Z,1.81
2019-01-30T21:19:57.844Z,1.79
2019-01-30T21:22:27.505Z,1.82
2019-01-30T21:24:57.171Z,1.87
2019-01-30T21:27:27.826Z,1.88
2019-01-30T21:29:57.480Z,1.90
2019-01-30T21:32:27.162Z,1.93
2019-01-30T21:34:56.827Z,1.97
2019-01-30T21:37:26.519Z,2.03
2019-01-30T21:39:56.206Z,2.07
2019-01-30T21:42:25.863Z,2.09
2019-01-30T21:44:55.791Z,2.11
2019-01-30T21:47:25.531Z,2.13
2019-01-30T21:49:55.211Z,2.19
2019-01-30T21:52:24.883Z,2.18
2019-01-30T21:54:54.551Z,2.22
2019-01-30T21:57:25.200Z,2.22
2019-01-30T21:59:54.848Z,2.21
2019-01-30T22:02:24.588Z,2.22
2019-01-30T22:04:54.499Z,2.26
2019-01-30T22:07:24.227Z,2.25
2019-01-30T22:09:53.835Z,2.27
2019-01-30T22:12:23.504Z,2.22
2019-01-30T22:14:53.184Z,2.25
2019-01-30T22:17:22.842Z,2.23
2019-01-30T22:19:52.528Z,2.24
2019-01-30T22:22:22.288Z,2.27
2019-01-30T22:24:51.972Z,2.26
2019-01-30T22:27:21.646Z,2.25
2019-01-30T22:29:51.323Z,2.19
2019-01-30T22:32:21.998Z,2.20
2019-01-30T22:34:51.655Z,2.21
2019-01-30T22:37:21.328Z,2.23
2019-01-30T22:39:51.242Z,2.28
2019-01-30T22:42:20.916Z,2.31
2019-01-30T22:44:50.583Z,2.35
2019-01-30T22:47:20.263Z,2.30
2019-01-30T22:49:49.992Z,2.27
2019-01-30T22:52:19.665Z,2.28
2019-01-30T22:54:49.319Z,2.31
2019-01-30T22:57:19.040Z,2.31
2019-01-30T22:59:48.699Z,2.29
2019-01-30T23:02:18.715Z,2.31
2019-01-30T23:05:34.462Z,2.32
2019-01-30T23:08:30.396Z,2.33
2019-01-30T23:11:52.022Z,2.32
2019-01-30T23:14:38.143Z,2.32
2019-01-30T23:17:56.400Z,2.32
2019-01-30T23:20:33.867Z,2.34
2019-01-30T23:23:46.689Z,2.29
2019-01-30T23:26:20.284Z,2.29
2019-01-30T23:29:37.394Z,2.32
2019-01-30T23:32:56.280Z,2.27
2019-01-30T23:35:44.340Z,2.25
2019-01-30T23:38:34.166Z,2.25
2019-01-30T23:41:22.623Z,2.19
2019-01-30T23:44:17.827Z,2.23
2019-01-30T23:47:43.540Z,2.24
2019-01-30T23:50:23.291Z,2.27
2019-01-30T23:53:21.579Z,2.28
2019-01-30T23:56:29.751Z,2.28
2019-01-30T23:59:14.847Z,2.27
